createdAt,value
2018-09-05T00:00:40.941Z,4.50
2018-09-05T00:01:47.622Z,4.72
2018-09-05T00:02:54.003Z,5.03
2018-09-05T00:04:00.419Z,5.05
2018-09-05T00:05:06.726Z,5.00
2018-09-05T00:06:13.078Z,4.25
2018-09-05T00:07:19.393Z,4.40
2018-09-05T00:08:25.651Z,4.40
2018-09-05T00:09:32.093Z,5.45
2018-09-05T00:10:39.109Z,5.95
2018-09-05T00:11:45.564Z,4.80
2018-09-05T00:12:51.821Z,4.80
2018-09-05T00:13:58.152Z,4.75
2018-09-05T00:15:04.226Z,4.40
2018-09-05T00:16:10.415Z,4.45
2018-09-05T00:17:16.487Z,5.00
2018-09-05T00:18:23.080Z,4.82
2018-09-05T00:19:29.503Z,4.40
2018-09-05T00:20:36.161Z,4.55
2018-09-05T00:21:42.533Z,4.25
2018-09-05T00:22:48.990Z,5.37
2018-09-05T00:23:54.929Z,4.80
2018-09-05T00:25:01.320Z,5.12
2018-09-05T00:26:07.568Z,4.90
2018-09-05T00:27:13.696Z,4.95
2018-09-05T00:28:20.108Z,4.90
2018-09-05T00:29:26.540Z,4.30
2018-09-05T00:30:32.826Z,5.25
2018-09-05T00:31:38.440Z,5.28
2018-09-05T00:32:44.235Z,4.90
2018-09-05T00:33:50.300Z,4.80
2018-09-05T00:34:56.411Z,5.82
2018-09-05T00:36:03.823Z,4.37
2018-09-05T00:37:10.034Z,4.97
2018-09-05T00:38:16.404Z,5.30
2018-09-05T00:39:27.645Z,5.22
2018-09-05T00:40:33.935Z,5.07
2018-09-05T00:41:40.785Z,4.70
2018-09-05T00:42:47.023Z,4.50
2018-09-05T00:43:53.311Z,4.30
2018-09-05T00:44:59.709Z,7.55
2018-09-05T00:46:06.131Z,5.10
2018-09-05T00:47:12.131Z,5.15
2018-09-05T00:48:18.519Z,4.90
2018-09-05T00:49:24.831Z,5.00
2018-09-05T00:50:30.467Z,4.85
2018-09-05T00:51:36.958Z,5.57
2018-09-05T00:52:43.383Z,4.93
2018-09-05T00:53:49.690Z,4.95
2018-09-05T00:54:55.831Z,5.25
2018-09-05T00:56:02.442Z,5.20
2018-09-05T00:57:08.732Z,5.00
2018-09-05T00:58:15.065Z,5.07
2018-09-05T00:59:21.377Z,4.65
2018-09-05T01:00:27.989Z,4.85
2018-09-05T01:01:32.890Z,5.35
2018-09-05T01:02:39.293Z,4.93
2018-09-05T01:03:45.565Z,5.07
2018-09-05T01:04:51.889Z,4.85
2018-09-05T01:05:58.142Z,4.15
2018-09-05T01:07:03.744Z,4.22
2018-09-05T01:08:09.940Z,5.00
2018-09-05T01:09:16.112Z,5.30
2018-09-05T01:10:22.256Z,5.35
2018-09-05T01:11:28.538Z,5.65
2018-09-05T01:12:34.972Z,5.20
2018-09-05T01:13:41.247Z,4.70
2018-09-05T01:14:46.976Z,5.40
2018-09-05T01:15:53.420Z,5.22
2018-09-05T01:16:59.781Z,5.07
2018-09-05T01:18:05.828Z,5.22
2018-09-05T01:19:11.925Z,5.07
2018-09-05T01:20:18.204Z,5.65
2018-09-05T01:21:24.518Z,4.82
2018-09-05T01:22:30.216Z,5.12
2018-09-05T01:23:37.120Z,5.57
2018-09-05T01:24:43.556Z,5.40
2018-09-05T01:25:49.645Z,5.15
2018-09-05T01:26:56.004Z,4.43
2018-09-05T01:28:02.060Z,6.85
2018-09-05T01:29:22.297Z,5.50
2018-09-05T01:30:28.648Z,5.30
2018-09-05T01:31:34.692Z,5.03
2018-09-05T01:32:41.551Z,5.62
2018-09-05T01:33:47.645Z,6.30
2018-09-05T01:34:53.773Z,5.75
2018-09-05T01:35:59.727Z,5.18
2018-09-05T01:37:05.252Z,5.82
2018-09-05T01:38:11.659Z,5.37
2018-09-05T01:39:17.919Z,6.12
2018-09-05T01:40:24.325Z,6.15
2018-09-05T01:41:30.700Z,5.62
2018-09-05T01:42:37.037Z,5.60
2018-09-05T01:43:43.591Z,4.90
2018-09-05T01:44:49.861Z,5.57
2018-09-05T01:45:56.201Z,5.90
2018-09-05T01:47:02.492Z,5.95
2018-09-05T01:48:08.628Z,5.70
2018-09-05T01:49:14.680Z,5.72
2018-09-05T01:50:19.908Z,5.45
2018-09-05T01:51:26.070Z,5.20
2018-09-05T01:52:32.531Z,6.32
2018-09-05T01:53:38.856Z,5.65
2018-09-05T01:54:45.393Z,5.32
2018-09-05T01:55:51.488Z,5.43
2018-09-05T01:56:57.784Z,4.90
2018-09-05T01:58:04.014Z,5.85
2018-09-05T01:59:10.056Z,6.10
2018-09-05T02:00:15.933Z,5.90
2018-09-05T02:01:22.116Z,5.55
2018-09-05T02:02:28.404Z,5.53
2018-09-05T02:03:34.740Z,5.50
2018-09-05T02:04:41.031Z,5.45
2018-09-05T02:05:47.144Z,5.85
2018-09-05T02:06:53.499Z,5.45
2018-09-05T02:07:59.887Z,5.72
2018-09-05T02:09:06.124Z,5.80
2018-09-05T02:10:12.276Z,5.65
2018-09-05T02:11:18.398Z,6.10
2018-09-05T02:12:24.721Z,6.32
2018-09-05T02:13:31.126Z,5.97
2018-09-05T02:14:37.421Z,5.50
2018-09-05T02:15:43.763Z,6.25
2018-09-05T02:16:50.052Z,5.53
2018-09-05T02:17:56.464Z,5.62
2018-09-05T02:19:02.612Z,5.53
2018-09-05T02:20:08.652Z,6.18
2018-09-05T02:21:14.698Z,6.05
2018-09-05T02:22:20.992Z,6.53
2018-09-05T02:23:27.339Z,6.60
2018-09-05T02:24:33.426Z,6.40
2018-09-05T02:25:39.820Z,7.50
2018-09-05T02:26:46.198Z,6.40
2018-09-05T02:27:52.377Z,6.47
2018-09-05T02:28:58.792Z,6.50
2018-09-05T02:30:04.368Z,5.95
2018-09-05T02:31:10.771Z,6.53
2018-09-05T02:32:17.144Z,6.60
2018-09-05T02:33:23.428Z,6.40
2018-09-05T02:34:29.715Z,6.82
2018-09-05T02:35:35.814Z,6.60
2018-09-05T02:36:42.223Z,7.32
2018-09-05T02:37:48.361Z,6.18
2018-09-05T02:38:54.780Z,6.07
2018-09-05T02:40:01.118Z,6.40
2018-09-05T02:41:07.061Z,6.97
2018-09-05T02:42:13.498Z,6.87
2018-09-05T02:43:19.716Z,6.35
2018-09-05T02:44:25.814Z,6.97
2018-09-05T02:45:32.242Z,6.95
2018-09-05T02:46:38.664Z,6.05
2018-09-05T02:47:44.939Z,7.12
2018-09-05T02:48:51.279Z,7.00
2018-09-05T02:49:57.573Z,6.43
2018-09-05T02:51:03.880Z,6.50
2018-09-05T02:52:09.986Z,6.25
2018-09-05T02:53:16.393Z,7.35
2018-09-05T02:54:22.734Z,7.20
2018-09-05T02:55:28.759Z,6.60
2018-09-05T02:56:35.133Z,6.45
2018-09-05T02:57:42.318Z,7.20
2018-09-05T02:58:48.409Z,6.30
2018-09-05T02:59:54.784Z,8.00
2018-09-05T03:01:01.365Z,7.87
2018-09-05T03:02:07.722Z,6.78
2018-09-05T03:03:14.136Z,6.85
2018-09-05T03:04:20.596Z,7.22
2018-09-05T03:05:26.765Z,6.93
2018-09-05T03:06:32.870Z,6.45
2018-09-05T03:07:39.302Z,7.43
2018-09-05T03:08:45.725Z,6.15
2018-09-05T03:09:52.012Z,7.22
2018-09-05T03:10:58.422Z,7.62
2018-09-05T03:12:04.476Z,7.47
2018-09-05T03:13:10.467Z,7.10
2018-09-05T03:14:16.872Z,6.80
2018-09-05T03:15:22.922Z,6.97
2018-09-05T03:16:29.089Z,8.35
2018-09-05T03:17:35.164Z,6.95
2018-09-05T03:18:41.577Z,6.95
2018-09-05T03:19:47.919Z,7.28
2018-09-05T03:20:53.980Z,7.82
2018-09-05T03:22:00.412Z,7.43
2018-09-05T03:23:06.835Z,7.40
2018-09-05T03:24:12.980Z,7.10
2018-09-05T03:25:19.250Z,6.72
2018-09-05T03:26:25.691Z,7.50
2018-09-05T03:27:31.797Z,8.65
2018-09-05T03:28:38.068Z,7.25
2018-09-05T03:29:44.423Z,8.30
2018-09-05T03:30:50.507Z,7.45
2018-09-05T03:31:56.811Z,7.28
2018-09-05T03:33:03.293Z,7.72
2018-09-05T03:34:09.876Z,7.40
2018-09-05T03:35:16.259Z,8.35
2018-09-05T03:36:22.653Z,7.03
2018-09-05T03:37:28.989Z,7.72
2018-09-05T03:38:35.428Z,7.40
2018-09-05T03:39:41.409Z,8.18
2018-09-05T03:40:47.819Z,8.18
2018-09-05T03:41:54.233Z,7.72
2018-09-05T03:43:00.333Z,7.12
2018-09-05T03:44:06.149Z,8.48
2018-09-05T03:45:12.553Z,7.00
2018-09-05T03:46:18.697Z,7.18
2018-09-05T03:47:24.734Z,6.75
2018-09-05T03:48:31.184Z,7.90
2018-09-05T03:49:37.688Z,7.55
2018-09-05T03:50:44.220Z,7.78
2018-09-05T03:51:50.676Z,7.68
2018-09-05T03:52:57.050Z,6.95
2018-09-05T03:54:03.460Z,7.30
2018-09-05T03:55:09.911Z,7.20
2018-09-05T03:56:15.937Z,7.75
2018-09-05T03:57:21.965Z,8.05
2018-09-05T03:58:28.260Z,7.75
2018-09-05T03:59:34.632Z,7.32
2018-09-05T04:00:40.942Z,7.15
2018-09-05T04:01:47.238Z,7.22
2018-09-05T04:02:53.345Z,7.32
2018-09-05T04:04:00.033Z,7.50
2018-09-05T04:05:05.596Z,8.48
2018-09-05T04:06:11.758Z,6.43
2018-09-05T04:07:18.180Z,7.68
2018-09-05T04:08:24.247Z,8.02
2018-09-05T04:09:31.457Z,7.90
2018-09-05T04:10:37.832Z,7.75
2018-09-05T04:11:44.262Z,8.70
2018-09-05T04:12:50.566Z,7.45
2018-09-05T04:13:56.977Z,7.87
2018-09-05T04:15:03.117Z,8.85
2018-09-05T04:16:09.222Z,7.50
2018-09-05T04:17:15.606Z,7.05
2018-09-05T04:18:21.721Z,8.00
2018-09-05T04:19:28.056Z,7.10
2018-09-05T04:20:34.340Z,7.80
2018-09-05T04:21:40.735Z,7.80
2018-09-05T04:22:47.162Z,7.57
2018-09-05T04:23:53.600Z,7.20
2018-09-05T04:24:59.921Z,7.12
2018-09-05T04:26:06.258Z,6.45
2018-09-05T04:27:12.546Z,8.18
2018-09-05T04:28:18.848Z,7.75
2018-09-05T04:29:25.156Z,7.03
2018-09-05T04:30:31.789Z,6.75
2018-09-05T04:31:38.074Z,7.62
2018-09-05T04:32:44.447Z,8.35
2018-09-05T04:33:50.693Z,8.05
2018-09-05T04:34:57.131Z,6.70
2018-09-05T04:36:03.413Z,8.75
2018-09-05T04:37:09.783Z,7.35
2018-09-05T04:38:15.977Z,7.30
2018-09-05T04:39:22.365Z,7.97
2018-09-05T04:40:28.439Z,7.60
2018-09-05T04:41:34.888Z,7.75
2018-09-05T04:42:41.036Z,8.38
2018-09-05T04:43:47.416Z,7.45
2018-09-05T04:44:53.739Z,7.68
2018-09-05T04:46:00.023Z,7.80
2018-09-05T04:47:06.167Z,8.00
2018-09-05T04:48:12.465Z,7.60
2018-09-05T04:49:20.253Z,7.95
2018-09-05T04:50:26.786Z,8.00
2018-09-05T04:51:32.608Z,7.85
2018-09-05T04:52:39.079Z,8.52
2018-09-05T04:53:45.566Z,8.48
2018-09-05T04:54:51.649Z,7.80
2018-09-05T04:55:58.673Z,8.95
2018-09-05T04:57:04.680Z,8.27
2018-09-05T04:58:11.119Z,8.88
2018-09-05T04:59:17.280Z,8.55
2018-09-05T05:00:24.382Z,8.10
2018-09-05T05:01:30.779Z,8.70
2018-09-05T05:02:36.936Z,8.40
2018-09-05T05:03:43.299Z,7.80
2018-09-05T05:04:50.086Z,8.15
2018-09-05T05:05:56.487Z,8.73
2018-09-05T05:07:03.031Z,7.80
2018-09-05T05:08:09.500Z,8.55
2018-09-05T05:09:15.857Z,8.35
2018-09-05T05:10:22.322Z,7.70
2018-09-05T05:11:40.991Z,8.10
2018-09-05T05:12:47.532Z,8.10
2018-09-05T05:13:54.099Z,8.75
2018-09-05T05:15:00.739Z,8.95
2018-09-05T05:16:06.839Z,8.77
2018-09-05T05:17:13.277Z,8.90
2018-09-05T05:18:19.209Z,9.20
2018-09-05T05:19:26.100Z,9.70
2018-09-05T05:20:32.526Z,9.05
2018-09-05T05:21:38.811Z,8.98
2018-09-05T05:22:45.112Z,8.65
2018-09-05T05:23:51.529Z,9.00
2018-09-05T05:24:57.988Z,9.18
2018-09-05T05:26:04.290Z,8.68
2018-09-05T05:27:10.672Z,9.05
2018-09-05T05:28:17.117Z,9.38
2018-09-05T05:29:24.177Z,9.02
2018-09-05T05:30:30.674Z,9.48
2018-09-05T05:31:37.048Z,9.90
2018-09-05T05:32:43.554Z,9.73
2018-09-05T05:33:50.125Z,9.18
2018-09-05T05:34:56.260Z,9.55
2018-09-05T05:36:02.736Z,9.40
2018-09-05T05:37:08.995Z,9.55
2018-09-05T05:38:15.163Z,8.98
2018-09-05T05:39:21.212Z,10.02
2018-09-05T05:40:27.261Z,10.48
2018-09-05T05:41:33.511Z,10.25
2018-09-05T05:42:39.866Z,9.90
2018-09-05T05:43:46.640Z,10.65
2018-09-05T05:44:52.787Z,10.13
2018-09-05T05:45:58.843Z,10.95
2018-09-05T05:47:04.508Z,9.65
2018-09-05T05:48:10.908Z,10.77
2018-09-05T05:49:17.030Z,11.43
2018-09-05T05:50:23.432Z,10.68
2018-09-05T05:51:29.759Z,9.48
2018-09-05T05:52:36.170Z,10.43
2018-09-05T05:53:42.269Z,10.25
2018-09-05T05:54:48.689Z,10.25
2018-09-05T05:55:55.160Z,10.32
2018-09-05T05:57:01.511Z,9.88
2018-09-05T05:58:07.961Z,10.55
2018-09-05T05:59:14.279Z,11.35
2018-09-05T06:00:20.417Z,11.15
2018-09-05T06:01:26.839Z,10.27
2018-09-05T06:02:33.330Z,10.80
2018-09-05T06:03:39.700Z,10.27
2018-09-05T06:04:45.992Z,9.85
2018-09-05T06:05:52.483Z,10.60
2018-09-05T06:06:58.962Z,11.18
2018-09-05T06:08:05.378Z,10.48
2018-09-05T06:09:11.684Z,11.23
2018-09-05T06:10:17.996Z,10.57
2018-09-05T06:11:24.150Z,11.20
2018-09-05T06:12:30.553Z,10.73
2018-09-05T06:13:36.910Z,11.35
2018-09-05T06:14:43.287Z,11.18
2018-09-05T06:15:50.354Z,10.15
2018-09-05T06:16:56.813Z,11.15
2018-09-05T06:18:03.226Z,11.00
2018-09-05T06:19:10.262Z,11.20
2018-09-05T06:20:16.692Z,10.27
2018-09-05T06:21:23.066Z,11.77
2018-09-05T06:22:28.669Z,10.90
2018-09-05T06:23:35.163Z,12.00
2018-09-05T06:24:41.257Z,11.95
2018-09-05T06:25:47.993Z,10.60
2018-09-05T06:26:54.444Z,11.07
2018-09-05T06:28:02.618Z,11.82
2018-09-05T06:29:08.780Z,10.80
2018-09-05T06:30:15.186Z,10.63
2018-09-05T06:31:22.551Z,10.57
2018-09-05T06:32:29.133Z,10.52
2018-09-05T06:33:35.520Z,12.45
2018-09-05T06:34:41.908Z,11.68
2018-09-05T06:35:48.299Z,12.30
2018-09-05T06:36:55.026Z,12.00
2018-09-05T06:38:01.358Z,11.55
2018-09-05T06:39:07.686Z,11.35
2018-09-05T06:40:14.265Z,10.98
2018-09-05T06:41:20.689Z,11.32
2018-09-05T06:42:27.098Z,11.80
2018-09-05T06:43:33.489Z,13.55
2018-09-05T06:44:39.850Z,10.73
2018-09-05T06:45:46.148Z,12.52
2018-09-05T06:46:52.446Z,12.40
2018-09-05T06:47:58.750Z,11.23
2018-09-05T06:49:05.014Z,12.02
2018-09-05T06:50:11.387Z,11.90
2018-09-05T06:51:17.711Z,12.18
2018-09-05T06:52:24.991Z,12.40
2018-09-05T06:53:31.359Z,11.60
2018-09-05T06:54:37.674Z,12.00
2018-09-05T06:55:44.153Z,11.90
2018-09-05T06:56:50.451Z,12.23
2018-09-05T06:57:56.636Z,11.75
2018-09-05T06:59:03.060Z,11.23
2018-09-05T07:00:10.337Z,12.88
2018-09-05T07:01:16.561Z,12.80
2018-09-05T07:02:23.008Z,12.90
2018-09-05T07:03:29.246Z,12.45
2018-09-05T07:04:35.890Z,13.55
2018-09-05T07:05:42.067Z,11.88
2018-09-05T07:06:48.697Z,12.27
2018-09-05T07:07:55.077Z,12.93
2018-09-05T07:09:01.517Z,12.65
2018-09-05T07:10:08.408Z,13.48
2018-09-05T07:11:14.901Z,13.50
2018-09-05T07:12:21.293Z,13.25
2018-09-05T07:13:27.600Z,13.55
2018-09-05T07:14:33.980Z,10.95
2018-09-05T07:15:40.664Z,12.00
2018-09-05T07:16:47.149Z,13.70
2018-09-05T07:17:53.713Z,11.88
2018-09-05T07:18:59.829Z,12.37
2018-09-05T07:20:05.612Z,14.55
2018-09-05T07:21:11.791Z,13.55
2018-09-05T07:22:18.294Z,12.40
2018-09-05T07:23:24.709Z,13.05
2018-09-05T07:24:31.118Z,12.57
2018-09-05T07:25:37.459Z,13.90
2018-09-05T07:26:43.851Z,12.13
2018-09-05T07:27:50.262Z,12.57
2018-09-05T07:28:57.035Z,11.95
2018-09-05T07:30:03.174Z,13.27
2018-09-05T07:31:09.635Z,11.00
2018-09-05T07:32:15.611Z,12.13
2018-09-05T07:33:22.156Z,13.80
2018-09-05T07:34:29.528Z,12.30
2018-09-05T07:35:37.289Z,11.43
2018-09-05T07:36:43.898Z,11.65
2018-09-05T07:37:51.777Z,13.07
2018-09-05T07:38:58.077Z,13.43
2018-09-05T07:40:04.688Z,13.25
2018-09-05T07:41:14.180Z,13.13
2018-09-05T07:42:21.956Z,12.70
2018-09-05T07:43:28.867Z,11.88
2018-09-05T07:44:34.973Z,12.35
2018-09-05T07:45:41.103Z,12.60
2018-09-05T07:46:47.476Z,12.82
2018-09-05T07:47:54.174Z,12.80
2018-09-05T07:49:00.418Z,12.18
2018-09-05T07:50:06.468Z,12.70
2018-09-05T07:51:12.832Z,12.80
2018-09-05T07:52:19.247Z,13.35
2018-09-05T07:53:25.676Z,11.80
2018-09-05T07:54:32.126Z,12.85
2018-09-05T07:55:38.611Z,13.13
2018-09-05T07:56:45.020Z,12.98
2018-09-05T07:57:51.431Z,11.32
2018-09-05T07:58:57.539Z,14.13
2018-09-05T08:00:03.352Z,12.95
2018-09-05T08:01:09.889Z,12.57
2018-09-05T08:02:16.161Z,11.60
2018-09-05T08:03:22.287Z,12.57
2018-09-05T08:04:28.629Z,12.50
2018-09-05T08:05:35.235Z,12.37
2018-09-05T08:06:41.526Z,13.35
2018-09-05T08:07:47.839Z,12.23
2018-09-05T08:08:54.963Z,13.05
2018-09-05T08:10:01.736Z,12.88
2018-09-05T08:11:08.233Z,13.68
2018-09-05T08:12:14.600Z,14.20
2018-09-05T08:13:21.004Z,13.07
2018-09-05T08:14:27.425Z,13.90
2018-09-05T08:15:33.967Z,11.80
2018-09-05T08:16:40.368Z,12.00
2018-09-05T08:17:46.823Z,13.10
2018-09-05T08:18:53.245Z,11.60
2018-09-05T08:19:59.439Z,11.35
2018-09-05T08:21:05.873Z,11.48
2018-09-05T08:22:12.268Z,11.40
2018-09-05T08:23:18.655Z,12.05
2018-09-05T08:24:24.642Z,11.05
2018-09-05T08:25:31.415Z,11.30
2018-09-05T08:26:37.999Z,10.75
2018-09-05T08:27:44.314Z,12.13
2018-09-05T08:28:50.776Z,11.95
2018-09-05T08:29:56.859Z,11.18
2018-09-05T08:31:02.984Z,10.40
2018-09-05T08:32:09.453Z,11.30
2018-09-05T08:33:15.984Z,11.10
2018-09-05T08:34:22.521Z,13.20
2018-09-05T08:35:29.914Z,11.23
2018-09-05T08:36:38.100Z,10.75
2018-09-05T08:37:44.317Z,10.88
2018-09-05T08:38:50.618Z,11.85
2018-09-05T08:39:57.259Z,10.45
2018-09-05T08:41:03.465Z,11.43
2018-09-05T08:42:10.614Z,10.13
2018-09-05T08:43:17.171Z,9.50
2018-09-05T08:44:23.768Z,11.68
2018-09-05T08:45:30.229Z,10.68
2018-09-05T08:46:36.420Z,9.50
2018-09-05T08:47:42.874Z,10.85
2018-09-05T08:48:48.942Z,9.73
2018-09-05T08:49:55.356Z,9.43
2018-09-05T08:51:01.761Z,9.95
2018-09-05T08:52:08.115Z,10.23
2018-09-05T08:53:14.423Z,10.00
2018-09-05T08:54:21.012Z,9.13
2018-09-05T08:55:27.466Z,9.57
2018-09-05T08:56:34.053Z,10.52
2018-09-05T08:57:40.496Z,10.15
2018-09-05T08:58:46.930Z,9.82
2018-09-05T08:59:53.513Z,10.13
2018-09-05T09:01:00.042Z,9.25
2018-09-05T09:02:05.743Z,8.82
2018-09-05T09:03:12.242Z,10.57
2018-09-05T09:04:18.635Z,9.23
2018-09-05T09:05:24.950Z,8.80
2018-09-05T09:06:31.567Z,8.45
2018-09-05T09:07:37.803Z,9.43
2018-09-05T09:08:44.188Z,8.98
2018-09-05T09:09:50.855Z,9.35
2018-09-05T09:10:57.240Z,8.73
2018-09-05T09:12:03.452Z,9.00
2018-09-05T09:13:10.644Z,8.55
2018-09-05T09:14:17.180Z,9.68
2018-09-05T09:15:23.824Z,9.30
2018-09-05T09:16:30.145Z,9.00
2018-09-05T09:17:36.630Z,8.52
2018-09-05T09:18:42.821Z,8.65
2018-09-05T09:19:49.196Z,8.35
2018-09-05T09:20:56.297Z,8.73
2018-09-05T09:22:02.383Z,8.90
2018-09-05T09:23:08.735Z,8.50
2018-09-05T09:24:14.809Z,8.57
2018-09-05T09:25:21.400Z,7.95
2018-09-05T09:26:27.864Z,7.60
2018-09-05T09:27:33.952Z,7.85
2018-09-05T09:28:40.408Z,7.45
2018-09-05T09:29:48.128Z,7.32
2018-09-05T09:30:54.512Z,9.35
2018-09-05T09:32:06.137Z,8.02
2018-09-05T09:33:19.491Z,7.87
2018-09-05T09:34:32.440Z,7.57
2018-09-05T09:35:41.096Z,8.52
2018-09-05T09:36:47.381Z,7.47
2018-09-05T09:37:54.068Z,7.45
2018-09-05T09:39:00.517Z,8.18
2018-09-05T09:40:06.603Z,8.68
2018-09-05T09:41:12.910Z,8.00
2018-09-05T09:42:19.266Z,8.32
2018-09-05T09:43:25.643Z,7.70
2018-09-05T09:44:32.079Z,9.25
2018-09-05T09:45:38.470Z,7.60
2018-09-05T09:46:45.507Z,7.82
2018-09-05T09:47:52.064Z,7.82
2018-09-05T09:48:58.436Z,7.60
2018-09-05T09:50:05.109Z,8.27
2018-09-05T09:51:11.414Z,7.70
2018-09-05T09:52:17.797Z,10.18
2018-09-05T09:53:23.836Z,7.40
2018-09-05T09:54:30.204Z,7.70
2018-09-05T09:55:36.773Z,8.13
2018-09-05T09:56:43.217Z,7.80
2018-09-05T09:57:49.751Z,8.00
2018-09-05T09:58:56.240Z,7.97
2018-09-05T10:00:02.439Z,7.87
2018-09-05T10:01:08.352Z,7.85
2018-09-05T10:04:08.225Z,8.65
2018-09-05T10:05:43.960Z,9.10
2018-09-05T10:07:03.003Z,9.00
2018-09-05T10:08:09.465Z,8.48
2018-09-05T10:09:15.693Z,9.50
2018-09-05T10:10:22.247Z,8.35
2018-09-05T10:11:28.299Z,8.73
2018-09-05T10:12:41.201Z,7.68
2018-09-05T10:13:47.430Z,8.75
2018-09-05T10:14:53.887Z,7.05
2018-09-05T10:15:59.757Z,8.05
2018-09-05T10:17:07.146Z,7.80
2018-09-05T10:18:13.174Z,7.93
2018-09-05T10:19:20.052Z,8.05
2018-09-05T10:20:27.669Z,8.93
2018-09-05T10:21:34.041Z,9.40
2018-09-05T10:22:40.526Z,8.48
2018-09-05T10:23:47.084Z,9.25
2018-09-05T10:24:53.157Z,7.75
2018-09-05T10:25:59.996Z,7.62
2018-09-05T10:27:06.356Z,6.87
2018-09-05T10:28:13.104Z,7.20
2018-09-05T10:29:19.557Z,7.70
2018-09-05T10:30:26.301Z,7.10
2018-09-05T10:31:32.453Z,7.45
2018-09-05T10:32:38.909Z,6.62
2018-09-05T10:33:45.198Z,6.35
2018-09-05T10:34:51.783Z,6.10
2018-09-05T10:35:58.259Z,6.05
2018-09-05T10:37:04.644Z,6.57
2018-09-05T10:38:11.079Z,6.47
2018-09-05T10:39:17.483Z,7.03
2018-09-05T10:40:23.942Z,6.87
2018-09-05T10:41:30.333Z,6.03
2018-09-05T10:42:36.965Z,6.53
2018-09-05T10:43:44.360Z,5.82
2018-09-05T10:44:51.006Z,5.80
2018-09-05T10:45:57.186Z,5.87
2018-09-05T10:47:03.842Z,6.35
2018-09-05T10:48:09.929Z,5.62
2018-09-05T10:49:16.485Z,6.43
2018-09-05T10:50:22.825Z,5.70
2018-09-05T10:51:29.047Z,5.78
2018-09-05T10:52:35.729Z,6.82
2018-09-05T10:53:42.491Z,6.85
2018-09-05T10:54:48.962Z,4.87
2018-09-05T10:55:54.905Z,5.05
2018-09-05T10:57:01.617Z,5.60
2018-09-05T10:58:07.789Z,4.40
2018-09-05T10:59:14.399Z,5.43
2018-09-05T11:00:20.716Z,5.40
2018-09-05T11:01:27.190Z,5.20
2018-09-05T11:02:33.823Z,5.07
2018-09-05T11:03:40.237Z,5.07
2018-09-05T11:04:47.721Z,4.80
2018-09-05T11:05:54.076Z,5.25
2018-09-05T11:07:00.572Z,4.72
2018-09-05T11:08:06.938Z,5.30
2018-09-05T11:09:13.404Z,5.70
2018-09-05T11:10:19.789Z,5.47
2018-09-05T11:11:26.718Z,5.28
2018-09-05T11:12:33.340Z,5.65
2018-09-05T11:13:39.804Z,5.50
2018-09-05T11:14:47.399Z,4.70
2018-09-05T11:15:54.755Z,5.65
2018-09-05T11:17:01.088Z,4.93
2018-09-05T11:18:07.971Z,5.35
2018-09-05T11:19:14.279Z,5.93
2018-09-05T11:20:20.478Z,6.07
2018-09-05T11:21:26.704Z,5.40
2018-09-05T11:22:33.245Z,4.82
2018-09-05T11:23:39.712Z,5.07
2018-09-05T11:24:46.018Z,5.55
2018-09-05T11:25:52.347Z,5.40
2018-09-05T11:26:58.734Z,4.65
2018-09-05T11:28:05.170Z,5.47
2018-09-05T11:29:11.818Z,5.10
2018-09-05T11:30:20.557Z,5.22
2018-09-05T11:31:27.817Z,4.90
2018-09-05T11:32:35.335Z,5.93
2018-09-05T11:33:42.678Z,4.93
2018-09-05T11:34:49.712Z,5.20
2018-09-05T11:35:57.764Z,5.30
2018-09-05T11:37:05.293Z,5.15
2018-09-05T11:38:12.736Z,4.70
2018-09-05T11:39:20.186Z,5.10
2018-09-05T11:40:27.781Z,4.70
2018-09-05T11:41:34.647Z,5.35
2018-09-05T11:42:41.674Z,5.60
2018-09-05T11:43:48.092Z,5.03
2018-09-05T11:44:54.546Z,5.18
2018-09-05T11:46:02.620Z,5.30
2018-09-05T11:47:10.294Z,4.90
2018-09-05T11:48:17.346Z,5.20
2018-09-05T11:49:24.150Z,5.25
2018-09-05T11:50:31.318Z,4.68
2018-09-05T11:51:38.099Z,5.32
2018-09-05T11:52:44.626Z,5.70
2018-09-05T11:53:51.996Z,6.20
2018-09-05T11:54:59.600Z,5.40
2018-09-05T11:56:05.913Z,5.93
2018-09-05T11:57:12.608Z,6.15
2018-09-05T11:58:20.993Z,6.65
2018-09-05T11:59:27.292Z,7.05
2018-09-05T12:00:34.742Z,5.90
2018-09-05T12:01:41.533Z,6.47
2018-09-05T12:02:49.546Z,6.15
2018-09-05T12:03:57.686Z,6.20
2018-09-05T12:05:06.687Z,6.22
2018-09-05T12:06:14.066Z,6.97
2018-09-05T12:07:20.704Z,5.93
2018-09-05T12:08:26.992Z,6.68
2018-09-05T12:09:33.629Z,6.10
2018-09-05T12:10:40.766Z,6.53
2018-09-05T12:11:47.687Z,6.37
2018-09-05T12:12:54.184Z,5.45
2018-09-05T12:14:01.096Z,5.93
2018-09-05T12:15:07.826Z,5.90
2018-09-05T12:16:14.853Z,5.50
2018-09-05T12:17:21.396Z,5.87
2018-09-05T12:18:28.631Z,5.20
2018-09-05T12:19:35.800Z,5.60
2018-09-05T12:20:42.754Z,6.07
2018-09-05T12:21:49.739Z,5.12
2018-09-05T12:22:57.435Z,7.70
2018-09-05T12:24:04.157Z,6.05
2018-09-05T12:25:10.874Z,5.75
2018-09-05T12:26:17.850Z,6.18
2018-09-05T12:27:24.300Z,5.87
2018-09-05T12:28:31.438Z,5.25
2018-09-05T12:29:38.702Z,5.55
2018-09-05T12:30:45.027Z,5.32
2018-09-05T12:31:51.982Z,5.60
2018-09-05T12:32:59.965Z,5.60
2018-09-05T12:34:06.483Z,5.45
2018-09-05T12:35:13.545Z,5.70
2018-09-05T12:36:20.373Z,5.07
2018-09-05T12:37:27.235Z,4.93
2018-09-05T12:38:33.817Z,5.82
2018-09-05T12:39:41.170Z,5.30
2018-09-05T12:40:47.767Z,4.87
2018-09-05T12:41:55.446Z,5.95
2018-09-05T12:43:02.914Z,5.65
2018-09-05T12:44:09.912Z,5.45
2018-09-05T12:45:16.596Z,5.22
2018-09-05T12:46:23.115Z,5.90
2018-09-05T12:47:30.354Z,5.95
2018-09-05T12:48:43.257Z,5.75
2018-09-05T12:49:50.151Z,5.00
2018-09-05T12:50:57.330Z,5.30
2018-09-05T12:52:04.341Z,5.50
2018-09-05T12:53:11.627Z,6.00
2018-09-05T12:54:18.244Z,5.80
2018-09-05T12:55:25.173Z,4.57
2018-09-05T12:56:32.101Z,6.10
2018-09-05T12:57:38.824Z,6.22
2018-09-05T12:58:45.285Z,5.35
2018-09-05T12:59:52.331Z,6.05
2018-09-05T13:00:58.780Z,4.85
2018-09-05T13:02:06.040Z,5.80
2018-09-05T13:03:12.941Z,5.47
2018-09-05T13:04:19.492Z,5.53
2018-09-05T13:05:26.570Z,6.53
2018-09-05T13:06:33.141Z,5.10
2018-09-05T13:07:40.230Z,5.10
2018-09-05T13:08:47.144Z,4.90
2018-09-05T13:09:53.467Z,6.53
2018-09-05T13:10:59.453Z,5.27
2018-09-05T13:12:05.312Z,5.22
2018-09-05T13:13:11.465Z,5.27
2018-09-05T13:14:17.781Z,4.95
2018-09-05T13:15:24.091Z,6.70
2018-09-05T13:16:30.388Z,5.12
2018-09-05T13:17:36.531Z,5.30
2018-09-05T13:18:43.265Z,5.82
2018-09-05T13:19:49.750Z,5.35
2018-09-05T13:20:56.033Z,5.18
2018-09-05T13:22:02.406Z,4.78
2018-09-05T13:23:08.656Z,4.35
2018-09-05T13:24:15.157Z,5.03
2018-09-05T13:25:21.515Z,4.60
2018-09-05T13:26:27.908Z,4.82
2018-09-05T13:27:34.307Z,4.85
2018-09-05T13:28:40.343Z,4.70
2018-09-05T13:29:46.731Z,4.78
2018-09-05T13:30:53.002Z,4.80
2018-09-05T13:31:59.311Z,5.18
2018-09-05T13:33:05.478Z,4.43
2018-09-05T13:34:12.071Z,4.82
2018-09-05T13:35:18.213Z,5.45
2018-09-05T13:36:24.092Z,5.30
2018-09-05T13:37:31.005Z,5.05
2018-09-05T13:38:37.158Z,5.00
2018-09-05T13:39:43.311Z,4.57
2018-09-05T13:40:49.409Z,5.00
2018-09-05T13:41:55.393Z,4.73
2018-09-05T13:43:06.277Z,4.20
2018-09-05T13:44:12.541Z,4.90
2018-09-05T13:45:19.029Z,5.15
2018-09-05T13:46:25.014Z,4.93
2018-09-05T13:47:30.810Z,4.17
2018-09-05T13:48:36.961Z,5.00
2018-09-05T13:49:43.035Z,5.00
2018-09-05T13:50:49.104Z,4.40
2018-09-05T13:51:54.926Z,4.20
2018-09-05T13:53:01.291Z,4.90
2018-09-05T13:54:06.860Z,4.57
2018-09-05T13:55:13.244Z,5.15
2018-09-05T13:56:19.657Z,4.53
2018-09-05T13:57:26.206Z,5.12
2018-09-05T13:58:32.293Z,4.87
2018-09-05T13:59:38.674Z,4.43
2018-09-05T14:00:44.752Z,4.70
2018-09-05T14:01:50.878Z,4.80
2018-09-05T14:02:57.702Z,5.10
2018-09-05T14:04:03.894Z,4.80
2018-09-05T14:05:10.000Z,4.97
2018-09-05T14:06:16.420Z,4.60
2018-09-05T14:07:22.165Z,4.40
2018-09-05T14:08:28.315Z,5.50
2018-09-05T14:09:34.345Z,5.03
2018-09-05T14:10:40.684Z,4.87
2018-09-05T14:11:46.413Z,5.23
2018-09-05T14:12:52.557Z,5.10
2018-09-05T14:13:58.678Z,5.17
2018-09-05T14:15:04.299Z,4.80
2018-09-05T14:16:10.441Z,4.67
2018-09-05T14:17:16.458Z,4.23
2018-09-05T14:18:22.585Z,4.43
2018-09-05T14:19:28.580Z,5.50
2018-09-05T14:20:34.461Z,5.47
2018-09-05T14:21:40.664Z,4.77
2018-09-05T14:22:46.777Z,4.83
2018-09-05T14:23:52.803Z,4.97
2018-09-05T14:25:00.493Z,4.83
2018-09-05T14:26:06.131Z,4.43
2018-09-05T14:27:12.906Z,4.70
2018-09-05T14:28:21.079Z,4.40
2018-09-05T14:29:28.052Z,4.20
2018-09-05T14:30:34.046Z,4.97
2018-09-05T14:31:40.265Z,5.07
2018-09-05T14:32:46.606Z,4.87
2018-09-05T14:33:54.101Z,5.30
2018-09-05T14:35:00.327Z,4.30
2018-09-05T14:36:06.618Z,5.10
2018-09-05T14:37:13.444Z,4.50
2018-09-05T14:38:19.792Z,4.40
2018-09-05T14:39:31.848Z,4.70
2018-09-05T14:40:38.180Z,5.20
2018-09-05T14:41:44.747Z,4.50